sensor_id;sensor_type;location;lat;lon;timestamp;P1;durP1;ratioP1;P2;durP2;ratioP2
3543;SDS011;1786;52.870;9.578;2023-09-08T00:00:19;5.33;;;4.20;;
3543;SDS011;1786;52.870;9.578;2023-09-08T00:02:46;9.47;;;4.47;;
3543;SDS011;1786;52.870;9.578;2023-09-08T00:05:13;4.50;;;4.20;;
3543;SDS011;1786;52.870;9.578;2023-09-08T00:07:41;5.10;;;4.60;;
3543;SDS011;1786;52.870;9.578;2023-09-08T00:10:09;4.43;;;4.13;;
3543;SDS011;1786;52.870;9.578;2023-09-08T00:12:38;5.33;;;4.20;;
3543;SDS011;1786;52.870;9.578;2023-09-08T00:15:05;8.00;;;5.00;;
3543;SDS011;1786;52.870;9.578;2023-09-08T00:17:33;7.40;;;4.70;;
3543;SDS011;1786;52.870;9.578;2023-09-08T00:20:00;5.50;;;4.90;;
3543;SDS011;1786;52.870;9.578;2023-09-08T00:22:27;6.23;;;4.77;;
3543;SDS011;1786;52.870;9.578;2023-09-08T00:24:54;15.53;;;4.93;;
3543;SDS011;1786;52.870;9.578;2023-09-08T00:27:22;4.60;;;4.20;;
3543;SDS011;1786;52.870;9.578;2023-09-08T00:29:49;5.93;;;4.40;;
3543;SDS011;1786;52.870;9.578;2023-09-08T00:32:16;4.47;;;4.07;;
3543;SDS011;1786;52.870;9.578;2023-09-08T00:34:43;4.73;;;4.37;;
3543;SDS011;1786;52.870;9.578;2023-09-08T00:37:09;14.97;;;4.90;;
3543;SDS011;1786;52.870;9.578;2023-09-08T00:39:37;4.87;;;4.47;;
3543;SDS011;1786;52.870;9.578;2023-09-08T00:42:06;6.10;;;4.70;;
3543;SDS011;1786;52.870;9.578;2023-09-08T00:44:34;5.57;;;5.00;;
3543;SDS011;1786;52.870;9.578;2023-09-08T00:47:00;6.77;;;5.00;;
3543;SDS011;1786;52.870;9.578;2023-09-08T00:49:28;5.57;;;5.07;;
3543;SDS011;1786;52.870;9.578;2023-09-08T00:51:55;5.93;;;4.47;;
3543;SDS011;1786;52.870;9.578;2023-09-08T00:54:22;5.57;;;5.00;;
3543;SDS011;1786;52.870;9.578;2023-09-08T00:56:52;7.70;;;5.07;;
3543;SDS011;1786;52.870;9.578;2023-09-08T00:59:22;6.30;;;5.70;;
3543;SDS011;1786;52.870;9.578;2023-09-08T01:01:51;7.97;;;5.03;;
3543;SDS011;1786;52.870;9.578;2023-09-08T01:04:20;5.30;;;4.70;;
3543;SDS011;1786;52.870;9.578;2023-09-08T01:06:47;4.70;;;4.30;;
3543;SDS011;1786;52.870;9.578;2023-09-08T01:09:16;9.60;;;4.20;;
3543;SDS011;1786;52.870;9.578;2023-09-08T01:11:44;7.17;;;4.70;;
3543;SDS011;1786;52.870;9.578;2023-09-08T01:14:17;5.50;;;4.40;;
3543;SDS011;1786;52.870;9.578;2023-09-08T01:16:45;5.77;;;5.27;;
3543;SDS011;1786;52.870;9.578;2023-09-08T01:19:13;7.60;;;5.23;;
3543;SDS011;1786;52.870;9.578;2023-09-08T01:21:51;4.97;;;4.57;;
3543;SDS011;1786;52.870;9.578;2023-09-08T01:24:56;6.10;;;5.50;;
3543;SDS011;1786;52.870;9.578;2023-09-08T01:27:24;6.10;;;4.73;;
3543;SDS011;1786;52.870;9.578;2023-09-08T01:29:53;5.67;;;5.13;;
3543;SDS011;1786;52.870;9.578;2023-09-08T01:32:20;5.90;;;4.90;;
3543;SDS011;1786;52.870;9.578;2023-09-08T01:34:47;5.90;;;5.33;;
3543;SDS011;1786;52.870;9.578;2023-09-08T01:37:15;4.87;;;4.37;;
3543;SDS011;1786;52.870;9.578;2023-09-08T01:39:42;4.50;;;4.20;;
3543;SDS011;1786;52.870;9.578;2023-09-08T01:42:08;5.53;;;5.00;;
3543;SDS011;1786;52.870;9.578;2023-09-08T01:44:35;6.80;;;4.83;;
3543;SDS011;1786;52.870;9.578;2023-09-08T01:47:02;5.87;;;5.37;;
3543;SDS011;1786;52.870;9.578;2023-09-08T01:49:29;5.57;;;4.73;;
3543;SDS011;1786;52.870;9.578;2023-09-08T01:51:57;5.70;;;5.10;;
3543;SDS011;1786;52.870;9.578;2023-09-08T01:54:28;7.03;;;4.90;;
3543;SDS011;1786;52.870;9.578;2023-09-08T01:56:55;5.40;;;5.00;;
3543;SDS011;1786;52.870;9.578;2023-09-08T01:59:22;7.63;;;5.30;;
3543;SDS011;1786;52.870;9.578;2023-09-08T02:01:49;6.93;;;5.10;;
3543;SDS011;1786;52.870;9.578;2023-09-08T02:04:15;6.23;;;5.13;;
3543;SDS011;1786;52.870;9.578;2023-09-08T02:06:43;5.27;;;4.77;;
3543;SDS011;1786;52.870;9.578;2023-09-08T02:09:11;6.03;;;5.53;;
3543;SDS011;1786;52.870;9.578;2023-09-08T02:11:41;7.50;;;5.20;;
3543;SDS011;1786;52.870;9.578;2023-09-08T02:14:08;6.13;;;5.53;;
3543;SDS011;1786;52.870;9.578;2023-09-08T02:16:38;13.53;;;5.90;;
3543;SDS011;1786;52.870;9.578;2023-09-08T02:19:06;5.47;;;5.03;;
3543;SDS011;1786;52.870;9.578;2023-09-08T02:21:33;6.83;;;5.37;;
3543;SDS011;1786;52.870;9.578;2023-09-08T02:24:00;6.30;;;5.70;;
3543;SDS011;1786;52.870;9.578;2023-09-08T02:26:27;6.30;;;5.80;;
3543;SDS011;1786;52.870;9.578;2023-09-08T02:28:54;5.40;;;4.47;;
3543;SDS011;1786;52.870;9.578;2023-09-08T02:31:21;8.03;;;4.57;;
3543;SDS011;1786;52.870;9.578;2023-09-08T02:33:48;4.60;;;4.20;;
3543;SDS011;1786;52.870;9.578;2023-09-08T02:36:16;5.30;;;4.90;;
3543;SDS011;1786;52.870;9.578;2023-09-08T02:38:42;5.50;;;5.00;;
3543;SDS011;1786;52.870;9.578;2023-09-08T02:41:09;7.27;;;5.60;;
3543;SDS011;1786;52.870;9.578;2023-09-08T02:43:36;6.33;;;5.23;;
3543;SDS011;1786;52.870;9.578;2023-09-08T02:46:03;5.50;;;4.83;;
3543;SDS011;1786;52.870;9.578;2023-09-08T02:48:30;6.53;;;5.33;;
3543;SDS011;1786;52.870;9.578;2023-09-08T02:50:57;5.73;;;5.23;;
3543;SDS011;1786;52.870;9.578;2023-09-08T02:53:25;6.23;;;5.63;;
3543;SDS011;1786;52.870;9.578;2023-09-08T02:55:55;7.60;;;4.97;;
3543;SDS011;1786;52.870;9.578;2023-09-08T02:58:22;8.20;;;5.97;;
3543;SDS011;1786;52.870;9.578;2023-09-08T03:00:49;6.20;;;5.70;;
3543;SDS011;1786;52.870;9.578;2023-09-08T03:03:18;8.40;;;6.53;;
3543;SDS011;1786;52.870;9.578;2023-09-08T03:05:46;8.80;;;5.70;;
3543;SDS011;1786;52.870;9.578;2023-09-08T03:08:13;8.30;;;6.50;;
3543;SDS011;1786;52.870;9.578;2023-09-08T03:10:40;7.63;;;5.53;;
3543;SDS011;1786;52.870;9.578;2023-09-08T03:13:07;8.80;;;5.53;;
3543;SDS011;1786;52.870;9.578;2023-09-08T03:15:36;10.60;;;5.70;;
3543;SDS011;1786;52.870;9.578;2023-09-08T03:18:04;5.43;;;5.03;;
3543;SDS011;1786;52.870;9.578;2023-09-08T03:20:31;6.63;;;6.00;;
3543;SDS011;1786;52.870;9.578;2023-09-08T03:22:58;6.30;;;5.80;;
3543;SDS011;1786;52.870;9.578;2023-09-08T03:25:25;6.07;;;5.57;;
3543;SDS011;1786;52.870;9.578;2023-09-08T03:27:51;7.10;;;6.40;;
3543;SDS011;1786;52.870;9.578;2023-09-08T03:30:18;7.53;;;5.37;;
3543;SDS011;1786;52.870;9.578;2023-09-08T03:32:45;5.67;;;5.27;;
3543;SDS011;1786;52.870;9.578;2023-09-08T03:35:12;7.27;;;5.57;;
3543;SDS011;1786;52.870;9.578;2023-09-08T03:37:40;9.00;;;6.63;;
3543;SDS011;1786;52.870;9.578;2023-09-08T03:40:07;6.20;;;5.60;;
3543;SDS011;1786;52.870;9.578;2023-09-08T03:42:35;6.90;;;5.73;;
3543;SDS011;1786;52.870;9.578;2023-09-08T03:45:02;10.03;;;6.30;;
3543;SDS011;1786;52.870;9.578;2023-09-08T03:47:32;7.40;;;6.47;;
3543;SDS011;1786;52.870;9.578;2023-09-08T03:50:00;5.90;;;5.07;;
3543;SDS011;1786;52.870;9.578;2023-09-08T03:52:27;10.37;;;6.60;;
3543;SDS011;1786;52.870;9.578;2023-09-08T03:54:54;6.90;;;6.30;;
3543;SDS011;1786;52.870;9.578;2023-09-08T03:57:21;7.23;;;6.43;;
3543;SDS011;1786;52.870;9.578;2023-09-08T03:59:47;12.50;;;7.10;;
3543;SDS011;1786;52.870;9.578;2023-09-08T04:02:14;9.17;;;6.17;;
3543;SDS011;1786;52.870;9.578;2023-09-08T04:04:41;6.90;;;6.03;;
3543;SDS011;1786;52.870;9.578;2023-09-08T04:07:08;7.13;;;6.40;;
3543;SDS011;1786;52.870;9.578;2023-09-08T04:09:35;15.47;;;5.57;;
3543;SDS011;1786;52.870;9.578;2023-09-08T04:12:02;6.90;;;6.23;;
3543;SDS011;1786;52.870;9.578;2023-09-08T04:14:30;7.30;;;6.60;;
3543;SDS011;1786;52.870;9.578;2023-09-08T04:16:57;6.57;;;5.97;;
3543;SDS011;1786;52.870;9.578;2023-09-08T04:19:23;12.07;;;7.30;;
3543;SDS011;1786;52.870;9.578;2023-09-08T04:21:53;6.87;;;6.17;;
3543;SDS011;1786;52.870;9.578;2023-09-08T04:24:20;6.77;;;6.07;;
3543;SDS011;1786;52.870;9.578;2023-09-08T04:26:50;6.90;;;6.30;;
3543;SDS011;1786;52.870;9.578;2023-09-08T04:29:17;9.13;;;6.70;;
3543;SDS011;1786;52.870;9.578;2023-09-08T04:31:44;7.70;;;6.13;;
3543;SDS011;1786;52.870;9.578;2023-09-08T04:34:11;7.60;;;6.67;;
3543;SDS011;1786;52.870;9.578;2023-09-08T04:36:38;7.30;;;5.70;;
3543;SDS011;1786;52.870;9.578;2023-09-08T04:39:04;7.73;;;6.33;;
3543;SDS011;1786;52.870;9.578;2023-09-08T04:41:32;6.40;;;5.80;;
3543;SDS011;1786;52.870;9.578;2023-09-08T04:43:58;7.30;;;6.20;;
3543;SDS011;1786;52.870;9.578;2023-09-08T04:46:25;7.30;;;6.60;;
3543;SDS011;1786;52.870;9.578;2023-09-08T04:48:52;7.50;;;6.30;;
3543;SDS011;1786;52.870;9.578;2023-09-08T04:51:21;11.33;;;6.90;;
3543;SDS011;1786;52.870;9.578;2023-09-08T04:53:48;12.13;;;6.57;;
3543;SDS011;1786;52.870;9.578;2023-09-08T04:56:15;17.67;;;7.37;;
3543;SDS011;1786;52.870;9.578;2023-09-08T04:58:43;7.43;;;6.67;;
3543;SDS011;1786;52.870;9.578;2023-09-08T05:01:11;7.20;;;6.50;;
3543;SDS011;1786;52.870;9.578;2023-09-08T05:03:39;7.00;;;6.40;;
3543;SDS011;1786;52.870;9.578;2023-09-08T05:06:07;8.70;;;6.50;;
3543;SDS011;1786;52.870;9.578;2023-09-08T05:08:34;7.40;;;6.70;;
3543;SDS011;1786;52.870;9.578;2023-09-08T05:11:02;7.93;;;6.63;;
3543;SDS011;1786;52.870;9.578;2023-09-08T05:13:29;8.10;;;7.30;;
3543;SDS011;1786;52.870;9.578;2023-09-08T05:16:00;8.13;;;6.77;;
3543;SDS011;1786;52.870;9.578;2023-09-08T05:18:39;7.47;;;6.70;;
3543;SDS011;1786;52.870;9.578;2023-09-08T05:21:25;7.70;;;6.70;;
3543;SDS011;1786;52.870;9.578;2023-09-08T05:23:52;8.73;;;6.60;;
3543;SDS011;1786;52.870;9.578;2023-09-08T05:26:20;7.87;;;6.53;;
3543;SDS011;1786;52.870;9.578;2023-09-08T05:28:46;8.93;;;5.83;;
3543;SDS011;1786;52.870;9.578;2023-09-08T05:31:13;6.13;;;5.60;;
3543;SDS011;1786;52.870;9.578;2023-09-08T05:33:41;6.23;;;5.20;;
3543;SDS011;1786;52.870;9.578;2023-09-08T05:36:10;15.03;;;6.50;;
3543;SDS011;1786;52.870;9.578;2023-09-08T05:38:42;8.60;;;6.23;;
3543;SDS011;1786;52.870;9.578;2023-09-08T05:41:09;6.20;;;5.70;;
3543;SDS011;1786;52.870;9.578;2023-09-08T05:43:36;7.73;;;6.03;;
3543;SDS011;1786;52.870;9.578;2023-09-08T05:46:04;5.83;;;5.43;;
3543;SDS011;1786;52.870;9.578;2023-09-08T05:48:31;6.73;;;6.03;;
3543;SDS011;1786;52.870;9.578;2023-09-08T05:50:59;6.13;;;5.53;;
3543;SDS011;1786;52.870;9.578;2023-09-08T05:53:29;7.03;;;6.40;;
3543;SDS011;1786;52.870;9.578;2023-09-08T05:55:56;8.77;;;5.97;;
3543;SDS011;1786;52.870;9.578;2023-09-08T05:58:24;7.50;;;5.77;;
3543;SDS011;1786;52.870;9.578;2023-09-08T06:00:53;8.40;;;5.77;;
3543;SDS011;1786;52.870;9.578;2023-09-08T06:03:21;9.30;;;6.57;;
3543;SDS011;1786;52.870;9.578;2023-09-08T06:05:48;9.77;;;5.73;;
3543;SDS011;1786;52.870;9.578;2023-09-08T06:08:33;6.33;;;5.73;;
3543;SDS011;1786;52.870;9.578;2023-09-08T06:11:01;5.63;;;5.13;;
3543;SDS011;1786;52.870;9.578;2023-09-08T06:13:28;5.83;;;5.33;;
3543;SDS011;1786;52.870;9.578;2023-09-08T06:15:55;6.50;;;5.60;;
3543;SDS011;1786;52.870;9.578;2023-09-08T06:18:21;6.27;;;5.67;;
3543;SDS011;1786;52.870;9.578;2023-09-08T06:20:49;7.03;;;6.00;;
3543;SDS011;1786;52.870;9.578;2023-09-08T06:23:19;6.83;;;5.80;;
3543;SDS011;1786;52.870;9.578;2023-09-08T06:25:48;6.30;;;5.70;;
3543;SDS011;1786;52.870;9.578;2023-09-08T06:28:16;6.40;;;5.70;;
3543;SDS011;1786;52.870;9.578;2023-09-08T06:30:43;6.70;;;5.80;;
3543;SDS011;1786;52.870;9.578;2023-09-08T06:33:11;7.23;;;6.03;;
3543;SDS011;1786;52.870;9.578;2023-09-08T06:35:38;21.53;;;5.40;;
3543;SDS011;1786;52.870;9.578;2023-09-08T06:38:05;7.80;;;5.43;;
3543;SDS011;1786;52.870;9.578;2023-09-08T06:40:32;7.07;;;5.60;;
3543;SDS011;1786;52.870;9.578;2023-09-08T06:42:59;7.47;;;6.03;;
3543;SDS011;1786;52.870;9.578;2023-09-08T06:45:56;6.70;;;5.73;;
3543;SDS011;1786;52.870;9.578;2023-09-08T06:48:23;9.47;;;6.30;;
3543;SDS011;1786;52.870;9.578;2023-09-08T06:50:52;5.07;;;4.67;;
3543;SDS011;1786;52.870;9.578;2023-09-08T06:53:22;6.30;;;5.70;;
3543;SDS011;1786;52.870;9.578;2023-09-08T06:55:50;15.03;;;5.67;;
3543;SDS011;1786;52.870;9.578;2023-09-08T06:58:17;6.47;;;5.87;;
3543;SDS011;1786;52.870;9.578;2023-09-08T07:00:44;15.93;;;6.33;;
3543;SDS011;1786;52.870;9.578;2023-09-08T07:03:11;10.07;;;6.00;;
3543;SDS011;1786;52.870;9.578;2023-09-08T07:05:39;8.13;;;5.83;;
3543;SDS011;1786;52.870;9.578;2023-09-08T07:08:07;6.53;;;5.70;;
3543;SDS011;1786;52.870;9.578;2023-09-08T07:10:34;9.10;;;6.47;;
3543;SDS011;1786;52.870;9.578;2023-09-08T07:13:01;7.20;;;5.90;;
3543;SDS011;1786;52.870;9.578;2023-09-08T07:15:28;8.57;;;5.70;;
3543;SDS011;1786;52.870;9.578;2023-09-08T07:17:54;12.33;;;6.40;;
3543;SDS011;1786;52.870;9.578;2023-09-08T07:20:22;9.03;;;5.90;;
3543;SDS011;1786;52.870;9.578;2023-09-08T07:22:49;10.40;;;6.13;;
3543;SDS011;1786;52.870;9.578;2023-09-08T07:25:17;9.33;;;5.43;;
3543;SDS011;1786;52.870;9.578;2023-09-08T07:27:44;29.30;;;7.13;;
3543;SDS011;1786;52.870;9.578;2023-09-08T07:30:11;8.50;;;5.27;;
3543;SDS011;1786;52.870;9.578;2023-09-08T07:32:39;15.27;;;6.53;;
3543;SDS011;1786;52.870;9.578;2023-09-08T07:35:06;8.00;;;5.80;;
3543;SDS011;1786;52.870;9.578;2023-09-08T07:37:43;7.53;;;5.60;;
3543;SDS011;1786;52.870;9.578;2023-09-08T07:40:10;7.03;;;6.30;;
3543;SDS011;1786;52.870;9.578;2023-09-08T07:42:38;6.63;;;5.13;;
3543;SDS011;1786;52.870;9.578;2023-09-08T07:45:05;7.97;;;5.80;;
3543;SDS011;1786;52.870;9.578;2023-09-08T07:47:32;9.80;;;5.90;;
3543;SDS011;1786;52.870;9.578;2023-09-08T07:52:47;6.30;;;5.37;;
3543;SDS011;1786;52.870;9.578;2023-09-08T07:55:15;8.83;;;5.97;;
3543;SDS011;1786;52.870;9.578;2023-09-08T07:57:43;7.70;;;5.90;;
3543;SDS011;1786;52.870;9.578;2023-09-08T08:00:12;5.60;;;5.10;;
3543;SDS011;1786;52.870;9.578;2023-09-08T08:02:42;12.00;;;5.33;;
3543;SDS011;1786;52.870;9.578;2023-09-08T08:05:11;8.83;;;5.87;;
3543;SDS011;1786;52.870;9.578;2023-09-08T08:07:38;7.23;;;5.80;;
3543;SDS011;1786;52.870;9.578;2023-09-08T08:10:06;7.03;;;5.30;;
3543;SDS011;1786;52.870;9.578;2023-09-08T08:12:33;6.20;;;5.70;;
3543;SDS011;1786;52.870;9.578;2023-09-08T08:15:00;8.50;;;5.23;;
3543;SDS011;1786;52.870;9.578;2023-09-08T08:17:27;12.73;;;5.53;;
3543;SDS011;1786;52.870;9.578;2023-09-08T08:19:57;5.33;;;4.93;;
3543;SDS011;1786;52.870;9.578;2023-09-08T08:22:36;14.40;;;5.73;;
3543;SDS011;1786;52.870;9.578;2023-09-08T08:25:04;7.27;;;5.20;;
3543;SDS011;1786;52.870;9.578;2023-09-08T08:27:31;6.00;;;5.40;;
3543;SDS011;1786;52.870;9.578;2023-09-08T08:29:59;8.83;;;5.07;;
3543;SDS011;1786;52.870;9.578;2023-09-08T08:32:32;5.87;;;5.27;;
3543;SDS011;1786;52.870;9.578;2023-09-08T08:35:00;7.33;;;4.97;;
3543;SDS011;1786;52.870;9.578;2023-09-08T08:37:28;5.93;;;5.23;;
3543;SDS011;1786;52.870;9.578;2023-09-08T08:39:56;8.83;;;5.63;;
3543;SDS011;1786;52.870;9.578;2023-09-08T08:42:22;11.87;;;5.57;;
3543;SDS011;1786;52.870;9.578;2023-09-08T08:44:50;6.10;;;5.13;;
3543;SDS011;1786;52.870;9.578;2023-09-08T08:47:17;7.60;;;4.83;;
3543;SDS011;1786;52.870;9.578;2023-09-08T08:49:45;4.83;;;4.43;;
3543;SDS011;1786;52.870;9.578;2023-09-08T08:52:14;7.57;;;4.50;;
3543;SDS011;1786;52.870;9.578;2023-09-08T08:54:42;5.63;;;4.63;;
3543;SDS011;1786;52.870;9.578;2023-09-08T08:57:09;6.37;;;5.90;;
3543;SDS011;1786;52.870;9.578;2023-09-08T08:59:38;8.13;;;5.13;;
3543;SDS011;1786;52.870;9.578;2023-09-08T09:02:05;4.73;;;3.90;;
3543;SDS011;1786;52.870;9.578;2023-09-08T09:04:32;5.73;;;5.13;;
3543;SDS011;1786;52.870;9.578;2023-09-08T09:07:00;4.63;;;4.23;;
3543;SDS011;1786;52.870;9.578;2023-09-08T09:09:28;6.57;;;4.70;;
3543;SDS011;1786;52.870;9.578;2023-09-08T09:11:55;6.53;;;5.17;;
3543;SDS011;1786;52.870;9.578;2023-09-08T09:14:22;5.10;;;4.67;;
3543;SDS011;1786;52.870;9.578;2023-09-08T09:16:50;5.67;;;5.17;;
3543;SDS011;1786;52.870;9.578;2023-09-08T09:19:23;10.13;;;5.00;;
3543;SDS011;1786;52.870;9.578;2023-09-08T09:21:58;7.20;;;5.07;;
3543;SDS011;1786;52.870;9.578;2023-09-08T09:24:59;5.30;;;4.47;;
3543;SDS011;1786;52.870;9.578;2023-09-08T09:27:24;5.77;;;5.30;;
3543;SDS011;1786;52.870;9.578;2023-09-08T09:29:51;5.20;;;4.73;;
3543;SDS011;1786;52.870;9.578;2023-09-08T09:32:23;5.10;;;4.60;;
3543;SDS011;1786;52.870;9.578;2023-09-08T09:34:52;6.53;;;5.13;;
3543;SDS011;1786;52.870;9.578;2023-09-08T09:37:20;5.33;;;4.93;;
3543;SDS011;1786;52.870;9.578;2023-09-08T09:39:48;8.10;;;4.73;;
3543;SDS011;1786;52.870;9.578;2023-09-08T09:42:23;9.83;;;4.63;;
3543;SDS011;1786;52.870;9.578;2023-09-08T09:44:53;4.83;;;4.50;;
3543;SDS011;1786;52.870;9.578;2023-09-08T09:47:20;5.47;;;4.97;;
3543;SDS011;1786;52.870;9.578;2023-09-08T09:49:48;5.30;;;4.80;;
3543;SDS011;1786;52.870;9.578;2023-09-08T09:52:21;6.83;;;5.00;;
3543;SDS011;1786;52.870;9.578;2023-09-08T09:54:50;8.13;;;4.70;;
3543;SDS011;1786;52.870;9.578;2023-09-08T09:57:19;4.83;;;4.47;;
3543;SDS011;1786;52.870;9.578;2023-09-08T09:59:48;5.03;;;4.67;;
3543;SDS011;1786;52.870;9.578;2023-09-08T10:02:18;5.43;;;4.70;;
3543;SDS011;1786;52.870;9.578;2023-09-08T10:04:49;3.90;;;3.70;;
3543;SDS011;1786;52.870;9.578;2023-09-08T10:07:18;4.77;;;4.37;;
3543;SDS011;1786;52.870;9.578;2023-09-08T10:09:45;5.07;;;4.67;;
3543;SDS011;1786;52.870;9.578;2023-09-08T10:12:13;4.93;;;4.63;;
3543;SDS011;1786;52.870;9.578;2023-09-08T10:14:42;5.13;;;4.60;;
3543;SDS011;1786;52.870;9.578;2023-09-08T10:17:12;8.70;;;5.00;;
3543;SDS011;1786;52.870;9.578;2023-09-08T10:19:45;4.83;;;4.53;;
3543;SDS011;1786;52.870;9.578;2023-09-08T10:22:21;4.87;;;4.47;;
3543;SDS011;1786;52.870;9.578;2023-09-08T10:24:53;4.73;;;4.37;;
3543;SDS011;1786;52.870;9.578;2023-09-08T10:27:25;5.60;;;4.70;;
3543;SDS011;1786;52.870;9.578;2023-09-08T10:29:52;6.80;;;4.40;;
3543;SDS011;1786;52.870;9.578;2023-09-08T10:32:20;10.33;;;4.67;;
3543;SDS011;1786;52.870;9.578;2023-09-08T10:34:48;4.40;;;4.10;;
3543;SDS011;1786;52.870;9.578;2023-09-08T10:39:47;4.63;;;4.23;;
3543;SDS011;1786;52.870;9.578;2023-09-08T10:44:43;4.50;;;4.10;;
3543;SDS011;1786;52.870;9.578;2023-09-08T10:47:11;4.57;;;4.27;;
3543;SDS011;1786;52.870;9.578;2023-09-08T10:49:38;4.53;;;4.13;;
3543;SDS011;1786;52.870;9.578;2023-09-08T10:52:07;5.10;;;4.30;;
3543;SDS011;1786;52.870;9.578;2023-09-08T10:54:42;4.40;;;4.00;;
3543;SDS011;1786;52.870;9.578;2023-09-08T10:57:14;7.23;;;3.87;;
3543;SDS011;1786;52.870;9.578;2023-09-08T10:59:55;4.40;;;4.10;;
3543;SDS011;1786;52.870;9.578;2023-09-08T11:02:36;11.47;;;4.03;;
3543;SDS011;1786;52.870;9.578;2023-09-08T11:05:06;4.63;;;4.17;;
3543;SDS011;1786;52.870;9.578;2023-09-08T11:07:38;4.35;;;3.83;;
3543;SDS011;1786;52.870;9.578;2023-09-08T11:10:08;3.40;;;3.20;;
3543;SDS011;1786;52.870;9.578;2023-09-08T11:12:36;4.15;;;3.58;;
3543;SDS011;1786;52.870;9.578;2023-09-08T11:15:03;5.47;;;3.97;;
3543;SDS011;1786;52.870;9.578;2023-09-08T11:17:32;4.10;;;3.80;;
3543;SDS011;1786;52.870;9.578;2023-09-08T11:20:01;4.00;;;3.65;;
3543;SDS011;1786;52.870;9.578;2023-09-08T11:22:39;4.18;;;3.40;;
3543;SDS011;1786;52.870;9.578;2023-09-08T11:25:07;3.57;;;3.27;;
3543;SDS011;1786;52.870;9.578;2023-09-08T11:27:34;3.63;;;3.33;;
3543;SDS011;1786;52.870;9.578;2023-09-08T11:30:02;3.87;;;3.57;;
3543;SDS011;1786;52.870;9.578;2023-09-08T11:32:31;3.80;;;3.50;;
3543;SDS011;1786;52.870;9.578;2023-09-08T11:35:05;9.70;;;3.67;;
3543;SDS011;1786;52.870;9.578;2023-09-08T11:37:35;3.50;;;3.30;;
3543;SDS011;1786;52.870;9.578;2023-09-08T11:40:04;6.97;;;3.37;;
3543;SDS011;1786;52.870;9.578;2023-09-08T11:42:41;4.30;;;3.90;;
3543;SDS011;1786;52.870;9.578;2023-09-08T11:45:15;3.63;;;3.33;;
3543;SDS011;1786;52.870;9.578;2023-09-08T11:47:47;4.50;;;3.73;;
3543;SDS011;1786;52.870;9.578;2023-09-08T11:50:16;5.17;;;3.60;;
3543;SDS011;1786;52.870;9.578;2023-09-08T11:52:45;3.50;;;3.20;;
3543;SDS011;1786;52.870;9.578;2023-09-08T11:55:13;3.80;;;3.50;;
3543;SDS011;1786;52.870;9.578;2023-09-08T11:57:41;3.50;;;3.30;;
3543;SDS011;1786;52.870;9.578;2023-09-08T12:00:10;5.43;;;3.50;;
3543;SDS011;1786;52.870;9.578;2023-09-08T12:02:42;4.63;;;3.67;;
3543;SDS011;1786;52.870;9.578;2023-09-08T12:05:13;3.67;;;3.53;;
3543;SDS011;1786;52.870;9.578;2023-09-08T12:07:49;3.92;;;3.33;;
3543;SDS011;1786;52.870;9.578;2023-09-08T12:10:19;3.65;;;3.50;;
3543;SDS011;1786;52.870;9.578;2023-09-08T12:12:53;3.70;;;3.50;;
3543;SDS011;1786;52.870;9.578;2023-09-08T12:15:30;3.83;;;3.53;;
3543;SDS011;1786;52.870;9.578;2023-09-08T12:18:03;4.37;;;3.87;;
3543;SDS011;1786;52.870;9.578;2023-09-08T12:20:32;3.75;;;3.55;;
3543;SDS011;1786;52.870;9.578;2023-09-08T12:23:03;5.27;;;3.47;;
3543;SDS011;1786;52.870;9.578;2023-09-08T12:25:43;3.80;;;3.50;;
3543;SDS011;1786;52.870;9.578;2023-09-08T12:28:11;4.35;;;4.00;;
3543;SDS011;1786;52.870;9.578;2023-09-08T12:30:38;3.55;;;3.35;;
3543;SDS011;1786;52.870;9.578;2023-09-08T12:33:05;4.57;;;3.97;;
3543;SDS011;1786;52.870;9.578;2023-09-08T12:35:32;3.33;;;3.03;;
3543;SDS011;1786;52.870;9.578;2023-09-08T12:38:03;4.55;;;3.22;;
3543;SDS011;1786;52.870;9.578;2023-09-08T12:40:35;3.67;;;3.47;;
3543;SDS011;1786;52.870;9.578;2023-09-08T12:43:03;3.47;;;3.28;;
3543;SDS011;1786;52.870;9.578;2023-09-08T12:45:51;5.17;;;3.50;;
3543;SDS011;1786;52.870;9.578;2023-09-08T12:48:17;3.20;;;3.00;;
3543;SDS011;1786;52.870;9.578;2023-09-08T12:50:44;3.60;;;3.30;;
3543;SDS011;1786;52.870;9.578;2023-09-08T12:53:11;3.28;;;2.80;;
3543;SDS011;1786;52.870;9.578;2023-09-08T12:55:38;3.45;;;3.20;;
3543;SDS011;1786;52.870;9.578;2023-09-08T12:58:04;5.07;;;3.47;;
3543;SDS011;1786;52.870;9.578;2023-09-08T13:00:31;4.45;;;3.00;;
3543;SDS011;1786;52.870;9.578;2023-09-08T13:02:58;3.55;;;3.25;;
3543;SDS011;1786;52.870;9.578;2023-09-08T13:05:25;2.63;;;2.53;;
3543;SDS011;1786;52.870;9.578;2023-09-08T13:07:53;2.92;;;2.83;;
3543;SDS011;1786;52.870;9.578;2023-09-08T13:10:19;5.03;;;3.30;;
3543;SDS011;1786;52.870;9.578;2023-09-08T13:12:46;3.28;;;3.08;;
3543;SDS011;1786;52.870;9.578;2023-09-08T13:15:15;3.75;;;3.38;;
3543;SDS011;1786;52.870;9.578;2023-09-08T13:17:42;3.42;;;3.15;;
3543;SDS011;1786;52.870;9.578;2023-09-08T13:20:09;3.50;;;3.20;;
3543;SDS011;1786;52.870;9.578;2023-09-08T13:22:36;3.92;;;3.72;;
3543;SDS011;1786;52.870;9.578;2023-09-08T13:25:03;4.55;;;3.38;;
3543;SDS011;1786;52.870;9.578;2023-09-08T13:27:30;3.97;;;3.72;;
3543;SDS011;1786;52.870;9.578;2023-09-08T13:30:11;7.50;;;3.58;;
3543;SDS011;1786;52.870;9.578;2023-09-08T13:32:39;6.75;;;3.50;;
3543;SDS011;1786;52.870;9.578;2023-09-08T13:35:06;3.00;;;2.60;;
3543;SDS011;1786;52.870;9.578;2023-09-08T13:37:34;4.30;;;3.50;;
3543;SDS011;1786;52.870;9.578;2023-09-08T13:40:01;4.85;;;3.38;;
3543;SDS011;1786;52.870;9.578;2023-09-08T13:42:31;7.57;;;2.70;;
3543;SDS011;1786;52.870;9.578;2023-09-08T13:44:58;3.75;;;3.28;;
3543;SDS011;1786;52.870;9.578;2023-09-08T13:47:25;2.95;;;2.75;;
3543;SDS011;1786;52.870;9.578;2023-09-08T13:49:53;3.17;;;2.90;;
3543;SDS011;1786;52.870;9.578;2023-09-08T13:52:23;4.03;;;2.90;;
3543;SDS011;1786;52.870;9.578;2023-09-08T13:54:53;3.22;;;2.92;;
3543;SDS011;1786;52.870;9.578;2023-09-08T13:57:39;6.28;;;3.20;;
3543;SDS011;1786;52.870;9.578;2023-09-08T14:00:07;2.97;;;2.78;;
3543;SDS011;1786;52.870;9.578;2023-09-08T14:02:42;3.08;;;2.78;;
3543;SDS011;1786;52.870;9.578;2023-09-08T14:05:16;2.83;;;2.72;;
3543;SDS011;1786;52.870;9.578;2023-09-08T14:07:46;3.08;;;2.60;;
3543;SDS011;1786;52.870;9.578;2023-09-08T14:10:27;2.80;;;2.60;;
3543;SDS011;1786;52.870;9.578;2023-09-08T14:13:06;3.13;;;2.80;;
3543;SDS011;1786;52.870;9.578;2023-09-08T14:15:33;4.45;;;2.97;;
3543;SDS011;1786;52.870;9.578;2023-09-08T14:17:59;6.78;;;3.08;;
3543;SDS011;1786;52.870;9.578;2023-09-08T14:20:26;3.28;;;3.15;;
3543;SDS011;1786;52.870;9.578;2023-09-08T14:22:56;3.25;;;3.10;;
3543;SDS011;1786;52.870;9.578;2023-09-08T14:25:22;11.48;;;2.53;;
3543;SDS011;1786;52.870;9.578;2023-09-08T14:27:49;2.95;;;2.42;;
3543;SDS011;1786;52.870;9.578;2023-09-08T14:30:16;2.83;;;2.72;;
3543;SDS011;1786;52.870;9.578;2023-09-08T14:32:43;3.30;;;3.10;;
3543;SDS011;1786;52.870;9.578;2023-09-08T14:35:10;8.88;;;4.07;;
3543;SDS011;1786;52.870;9.578;2023-09-08T14:37:36;3.05;;;2.90;;
3543;SDS011;1786;52.870;9.578;2023-09-08T14:40:03;2.90;;;2.70;;
3543;SDS011;1786;52.870;9.578;2023-09-08T14:42:30;3.75;;;2.70;;
3543;SDS011;1786;52.870;9.578;2023-09-08T14:44:57;3.78;;;2.85;;
3543;SDS011;1786;52.870;9.578;2023-09-08T14:47:24;4.40;;;2.83;;
3543;SDS011;1786;52.870;9.578;2023-09-08T14:49:51;6.30;;;3.00;;
3543;SDS011;1786;52.870;9.578;2023-09-08T14:52:17;6.65;;;3.10;;
3543;SDS011;1786;52.870;9.578;2023-09-08T14:54:47;3.42;;;3.05;;
3543;SDS011;1786;52.870;9.578;2023-09-08T14:57:13;2.70;;;2.58;;
3543;SDS011;1786;52.870;9.578;2023-09-08T14:59:40;2.95;;;2.63;;
3543;SDS011;1786;52.870;9.578;2023-09-08T15:02:07;3.63;;;3.33;;
3543;SDS011;1786;52.870;9.578;2023-09-08T15:04:35;5.95;;;3.15;;
3543;SDS011;1786;52.870;9.578;2023-09-08T15:07:03;3.30;;;3.10;;
3543;SDS011;1786;52.870;9.578;2023-09-08T15:09:30;6.30;;;2.70;;
3543;SDS011;1786;52.870;9.578;2023-09-08T15:11:57;3.20;;;3.00;;
3543;SDS011;1786;52.870;9.578;2023-09-08T15:14:24;3.88;;;3.03;;
3543;SDS011;1786;52.870;9.578;2023-09-08T15:16:51;3.63;;;3.17;;
3543;SDS011;1786;52.870;9.578;2023-09-08T15:19:18;2.85;;;2.75;;
3543;SDS011;1786;52.870;9.578;2023-09-08T15:21:44;3.10;;;2.72;;
3543;SDS011;1786;52.870;9.578;2023-09-08T15:24:11;2.60;;;2.50;;
3543;SDS011;1786;52.870;9.578;2023-09-08T15:26:37;6.25;;;3.28;;
3543;SDS011;1786;52.870;9.578;2023-09-08T15:29:05;5.65;;;2.75;;
3543;SDS011;1786;52.870;9.578;2023-09-08T15:31:32;3.50;;;3.20;;